Kaw, Oklahoma
Current Conditions -  °F | °C
As of 6:53 AM on Wednesday 26 Nov 2014 (Local Time) from KPNC Reporting Station
Overcast Overcast  
Wind Chill: 40°   Ceiling: 11000
Heat Index: 44°   Visibility: 10mi
Dew Point: 30°   Wind: 7mph
Humidity: 58%   Direction: 340°NNW
Pressure: 30.04"   Gusts: NA
Location:  36.8967°N, 96.8424°W
Report Text: KPNC 261253Z AUTO 34006KT 10SM OVC110 07/M01 A3004 RMK AO2 SLP172 T00671011
Loading
Personal Weather Stations






























Interactive Weather Map New forecast layout! Learn more

10-Day Weather Forecast

Advertisements
Track Severe Weather on mobile